createdAt,value
2023-05-24T00:03:19.546Z,13.60
2023-05-24T00:08:28.210Z,13.60
2023-05-24T00:13:37.686Z,13.60
2023-05-24T00:18:46.279Z,13.50
2023-05-24T00:23:55.706Z,13.50
2023-05-24T00:29:04.806Z,13.40
2023-05-24T00:34:14.024Z,13.30
2023-05-24T00:39:23.014Z,13.20
2023-05-24T00:44:32.431Z,13.10
2023-05-24T00:49:41.116Z,13.00
2023-05-24T00:54:50.236Z,12.80
2023-05-24T00:59:59.197Z,12.80
2023-05-24T01:05:08.438Z,12.60
2023-05-24T01:10:17.145Z,12.60
2023-05-24T01:15:26.341Z,12.60
2023-05-24T01:20:35.419Z,12.60
2023-05-24T01:25:44.408Z,12.50
2023-05-24T01:30:53.478Z,12.40
2023-05-24T01:36:02.964Z,12.30
2023-05-24T01:41:11.950Z,12.20
2023-05-24T01:46:21.254Z,12.20
2023-05-24T01:51:30.287Z,12.10
2023-05-24T01:56:39.513Z,12.20
2023-05-24T02:01:48.215Z,12.20
2023-05-24T02:06:57.276Z,12.20
2023-05-24T02:12:06.139Z,12.10
2023-05-24T02:17:15.335Z,12.20
2023-05-24T02:22:24.016Z,12.20
2023-05-24T02:27:32.878Z,12.20
2023-05-24T02:32:42.232Z,12.20
2023-05-24T02:37:51.097Z,12.30
2023-05-24T02:43:00.067Z,12.40
2023-05-24T02:48:09.353Z,12.50
2023-05-24T02:53:21.221Z,12.50
2023-05-24T02:58:20.017Z,12.70
2023-05-24T03:03:28.926Z,12.90
2023-05-24T03:08:38.073Z,13.00
2023-05-24T03:13:46.761Z,13.20
2023-05-24T03:18:55.874Z,13.40
2023-05-24T03:24:04.712Z,13.60
2023-05-24T03:29:14.179Z,13.80
2023-05-24T03:34:22.900Z,14.10
2023-05-24T03:39:31.910Z,14.30
2023-05-24T03:44:40.953Z,14.50
2023-05-24T03:49:50.422Z,14.90
2023-05-24T03:55:02.404Z,15.10
2023-05-24T04:00:01.900Z,15.50
2023-05-24T04:05:10.777Z,15.80
2023-05-24T04:10:20.153Z,16.20
2023-05-24T04:15:29.285Z,16.50
2023-05-24T04:20:38.930Z,16.90
2023-05-24T04:25:47.539Z,17.30
2023-05-24T04:30:56.545Z,17.60
2023-05-24T04:36:05.152Z,17.90
2023-05-24T04:41:14.761Z,18.20
2023-05-24T04:46:23.903Z,18.50
2023-05-24T05:12:10.154Z,19.70
2023-05-24T05:17:18.848Z,20.10
2023-05-24T05:22:29.437Z,20.30
2023-05-24T05:27:36.718Z,20.70
2023-05-24T05:32:46.251Z,21.00
2023-05-24T05:37:55.453Z,21.30
2023-05-24T05:43:04.746Z,21.40
2023-05-24T05:48:13.417Z,21.50
2023-05-24T05:53:22.774Z,21.70
2023-05-24T05:58:32.245Z,22.00
2023-05-24T06:03:41.426Z,22.50
2023-05-24T06:08:49.971Z,22.80
2023-05-24T06:13:59.581Z,22.90
2023-05-24T06:19:09.113Z,23.10
2023-05-24T06:24:18.244Z,23.20
2023-05-24T06:29:26.945Z,23.10
2023-05-24T06:34:36.514Z,23.30
2023-05-24T06:39:45.262Z,23.30
2023-05-24T06:44:54.582Z,23.50
2023-05-24T06:50:03.161Z,23.60
2023-05-24T06:55:12.684Z,23.80
2023-05-24T07:00:21.466Z,23.70
2023-05-24T07:05:31.229Z,23.70
2023-05-24T07:10:39.832Z,23.90
2023-05-24T07:15:48.918Z,24.20
2023-05-24T07:20:58.061Z,24.60
2023-05-24T07:26:07.163Z,24.70
2023-05-24T07:31:16.324Z,24.80
2023-05-24T07:36:25.915Z,24.80
2023-05-24T07:41:34.748Z,25.10
2023-05-24T07:46:44.025Z,25.30
2023-05-24T07:51:52.955Z,25.70
2023-05-24T07:57:02.336Z,25.90
2023-05-24T08:02:11.225Z,26.00
2023-05-24T08:07:20.599Z,26.30
2023-05-24T08:12:29.776Z,26.50
2023-05-24T08:17:39.137Z,26.70
2023-05-24T08:22:47.893Z,26.60
2023-05-24T08:27:57.230Z,26.70
2023-05-24T08:33:06.219Z,26.70
2023-05-24T08:38:15.207Z,26.80
2023-05-24T08:43:24.036Z,26.90
2023-05-24T08:48:33.320Z,27.00
2023-05-24T08:53:42.256Z,27.10
2023-05-24T08:58:51.166Z,27.40
2023-05-24T09:04:00.145Z,27.50
2023-05-24T09:09:09.313Z,26.80
2023-05-24T09:14:17.854Z,26.30
2023-05-24T09:19:26.988Z,26.00
2023-05-24T09:24:35.695Z,26.00
2023-05-24T09:29:45.432Z,26.20
2023-05-24T09:34:54.495Z,26.60
2023-05-24T09:40:03.747Z,26.80
2023-05-24T09:45:13.082Z,27.00
2023-05-24T09:50:22.623Z,27.20
2023-05-24T09:55:31.650Z,27.40
2023-05-24T10:00:41.239Z,27.80
2023-05-24T10:05:50.238Z,28.70
2023-05-24T10:10:59.469Z,29.70
2023-05-24T10:16:07.847Z,30.40
2023-05-24T10:21:19.103Z,30.90
2023-05-24T10:26:18.053Z,31.10
2023-05-24T10:31:27.302Z,31.20
2023-05-24T10:36:38.882Z,30.80
2023-05-24T10:41:37.962Z,31.00
2023-05-24T10:46:46.758Z,30.90
2023-05-24T10:51:56.257Z,30.30
2023-05-24T10:57:05.071Z,29.60
2023-05-24T11:02:14.516Z,29.40
2023-05-24T11:07:26.645Z,29.10
2023-05-24T11:12:25.581Z,28.80
2023-05-24T11:17:34.341Z,28.60
2023-05-24T11:22:43.482Z,28.40
2023-05-24T11:27:52.410Z,28.20
2023-05-24T11:33:01.928Z,28.10
2023-05-24T11:38:11.089Z,28.10
2023-05-24T11:43:20.518Z,28.00
2023-05-24T11:48:29.359Z,27.70
2023-05-24T11:53:39.020Z,27.50
2023-05-24T11:58:47.690Z,27.50
2023-05-24T12:03:57.021Z,27.70
2023-05-24T12:09:05.711Z,27.90
2023-05-24T12:14:15.126Z,28.30
2023-05-24T12:19:33.288Z,28.50
2023-05-24T12:24:32.943Z,28.90
2023-05-24T12:29:42.311Z,29.20
2023-05-24T12:34:51.349Z,29.60
2023-05-24T12:40:00.305Z,30.10
2023-05-24T12:45:09.591Z,30.10
2023-05-24T12:50:18.521Z,30.20
2023-05-24T12:55:27.801Z,30.30
2023-05-24T13:00:37.056Z,30.40
2023-05-24T13:05:46.390Z,29.90
2023-05-24T13:10:55.322Z,29.90
2023-05-24T13:16:07.536Z,30.10
2023-05-24T13:21:06.065Z,30.40
2023-05-24T13:26:15.471Z,30.60
2023-05-24T13:31:24.704Z,30.70
2023-05-24T13:36:33.963Z,30.20
2023-05-24T13:41:43.448Z,29.60
2023-05-24T13:46:52.094Z,29.20
2023-05-24T13:52:00.829Z,29.20
2023-05-24T13:57:10.435Z,29.10
2023-05-24T14:02:19.150Z,28.80
2023-05-24T14:07:27.987Z,28.30
2023-05-24T14:12:36.885Z,28.40
2023-05-24T14:17:45.981Z,28.40
2023-05-24T14:22:56.424Z,28.00
2023-05-24T14:28:03.413Z,28.10
2023-05-24T14:33:12.227Z,28.50
2023-05-24T14:38:21.234Z,28.90
2023-05-24T14:43:30.063Z,28.90
2023-05-24T14:48:39.356Z,29.00
2023-05-24T14:53:47.890Z,29.00
2023-05-24T14:58:57.190Z,29.10
2023-05-24T15:04:06.248Z,29.70
2023-05-24T15:09:15.746Z,30.70
2023-05-24T15:14:24.507Z,31.20
2023-05-24T15:19:33.500Z,31.60
2023-05-24T15:24:42.352Z,31.70
2023-05-24T15:29:51.733Z,31.90
2023-05-24T15:35:00.682Z,32.70
2023-05-24T15:40:09.418Z,33.20
2023-05-24T15:45:18.135Z,32.30
2023-05-24T15:50:53.999Z,32.70
2023-05-24T15:55:35.806Z,33.10
2023-05-24T16:00:45.264Z,32.00
2023-05-24T16:05:53.466Z,30.60
2023-05-24T16:11:03.154Z,30.10
2023-05-24T16:16:12.161Z,30.80
2023-05-24T16:21:21.235Z,31.10
2023-05-24T16:26:30.816Z,30.50
2023-05-24T16:31:40.317Z,30.00
2023-05-24T16:36:49.262Z,29.20
2023-05-24T16:42:00.316Z,28.40
2023-05-24T16:47:07.094Z,27.70
2023-05-24T16:52:16.401Z,27.60
2023-05-24T16:57:25.215Z,27.10
2023-05-24T17:02:35.741Z,26.70
2023-05-24T17:07:34.511Z,27.00
2023-05-24T17:12:43.824Z,27.20
2023-05-24T17:17:52.647Z,27.20
2023-05-24T17:23:03.038Z,27.10
2023-05-24T17:28:01.723Z,27.20
2023-05-24T17:33:11.555Z,27.20
2023-05-24T17:38:20.567Z,26.80
2023-05-24T17:43:29.690Z,26.70
2023-05-24T17:48:38.429Z,26.30
2023-05-24T17:53:48.129Z,25.50
2023-05-24T17:59:00.040Z,24.60
2023-05-24T18:03:59.074Z,24.00
2023-05-24T18:09:07.902Z,23.40
2023-05-24T18:14:17.176Z,22.90
2023-05-24T18:19:25.811Z,22.50
2023-05-24T18:24:35.156Z,22.20
2023-05-24T18:29:43.992Z,21.80
2023-05-24T18:34:53.265Z,21.40
2023-05-24T18:40:02.340Z,21.10
2023-05-24T18:45:11.944Z,20.90
2023-05-24T18:50:22.886Z,20.70
2023-05-24T18:55:29.264Z,20.70
2023-05-24T19:00:38.300Z,20.50
2023-05-24T19:05:47.776Z,20.20
2023-05-24T19:10:56.646Z,19.90
2023-05-24T19:16:05.615Z,19.90
2023-05-24T19:21:14.265Z,19.80
2023-05-24T19:26:23.394Z,19.90
2023-05-24T19:31:32.402Z,19.80
2023-05-24T19:36:40.828Z,19.70
2023-05-24T19:41:49.799Z,19.60
2023-05-24T19:46:58.953Z,19.50
2023-05-24T19:52:07.405Z,19.40
2023-05-24T19:57:16.332Z,19.20
2023-05-24T20:02:25.239Z,19.10
2023-05-24T20:07:34.592Z,19.10
2023-05-24T20:12:43.532Z,19.00
2023-05-24T20:17:53.531Z,19.00
2023-05-24T20:23:02.360Z,18.80
2023-05-24T20:28:25.755Z,18.70
2023-05-24T20:33:19.635Z,18.60
2023-05-24T20:38:28.782Z,18.50
2023-05-24T20:48:47.460Z,18.50
2023-05-24T20:53:56.471Z,18.40
2023-05-24T21:04:14.558Z,18.30
2023-05-24T21:19:42.204Z,18.00
2023-05-24T21:40:18.544Z,17.60
2023-05-24T21:45:27.407Z,17.30
2023-05-24T21:50:36.448Z,17.20
2023-05-24T21:55:46.401Z,16.90
2023-05-24T22:00:55.531Z,16.80
2023-05-24T22:06:07.469Z,16.80
2023-05-24T22:11:06.733Z,16.50
2023-05-24T22:16:15.522Z,16.40
2023-05-24T22:21:24.894Z,16.20
2023-05-24T22:26:33.710Z,16.00
2023-05-24T22:31:43.005Z,15.90
2023-05-24T22:36:52.069Z,15.80
2023-05-24T22:42:01.313Z,15.80
2023-05-24T22:47:10.564Z,15.50
2023-05-24T22:52:19.692Z,15.30
2023-05-24T22:57:28.415Z,15.30
2023-05-24T23:02:37.607Z,15.20
2023-05-24T23:07:46.911Z,15.00
2023-05-24T23:12:56.049Z,14.90
2023-05-24T23:18:05.176Z,14.80
2023-05-24T23:23:14.262Z,14.90
2023-05-24T23:28:23.222Z,14.70
2023-05-24T23:33:32.442Z,14.60
2023-05-24T23:38:41.235Z,14.60
2023-05-24T23:43:49.863Z,14.60
2023-05-24T23:48:58.624Z,14.50
2023-05-24T23:54:08.370Z,14.40
2023-05-24T23:59:17.647Z,14.20
